Tsail, Arizona
Current Conditions -  °F | °C
As of 4:53 AM on Thursday 29 Jan 2015 (Local Time) from KRQE Reporting Station
Scattered Clouds Scattered Clouds  
Wind Chill: 35°   Ceiling: Unl
Heat Index: 35°   Visibility: 10mi
Dew Point: 28°   Wind: 0mph
Humidity: 76%   Direction: NA
Pressure: 30.31"   Gusts: NA
Location:  36.1012°N, 109.584°W
Report Text: KRQE 291153Z AUTO 00000KT 10SM SCT120 02/M02 A3031 RMK AO2 SLP216 T00171022 10022 21006 50004 TSNO
Loading
Personal Weather Stations






























Interactive Weather Map New forecast layout! Learn more

10-Day Weather Forecast

Advertisements
Track Severe Weather on mobile